createdAt,value
2023-04-08T00:00:08.448Z,7.04
2023-04-08T00:01:08.437Z,7.04
2023-04-08T00:02:08.518Z,7.01
2023-04-08T00:03:08.599Z,7.00
2023-04-08T00:04:08.549Z,6.99
2023-04-08T00:05:08.430Z,6.99
2023-04-08T00:06:08.399Z,6.97
2023-04-08T00:07:08.372Z,6.96
2023-04-08T00:08:08.399Z,6.96
2023-04-08T00:09:08.349Z,6.96
2023-04-08T00:10:08.353Z,6.96
2023-04-08T00:11:08.336Z,6.97
2023-04-08T00:12:08.329Z,6.97
2023-04-08T00:13:08.332Z,6.99
2023-04-08T00:14:08.302Z,6.99
2023-04-08T00:15:08.304Z,7.01
2023-04-08T00:16:08.289Z,7.01
2023-04-08T00:17:08.348Z,7.00
2023-04-08T00:18:08.302Z,6.96
2023-04-08T00:19:08.253Z,6.93
2023-04-08T00:20:08.260Z,6.89
2023-04-08T00:21:08.232Z,6.89
2023-04-08T00:22:08.252Z,6.89
2023-04-08T00:23:08.216Z,6.89
2023-04-08T00:24:08.203Z,6.88
2023-04-08T00:25:08.187Z,6.89
2023-04-08T00:26:08.177Z,6.89
2023-04-08T00:27:08.172Z,6.89
2023-04-08T00:28:08.174Z,6.89
2023-04-08T00:29:08.146Z,6.89
2023-04-08T00:30:08.141Z,6.92
2023-04-08T00:31:08.143Z,6.91
2023-04-08T00:32:08.115Z,6.91
2023-04-08T00:33:08.144Z,6.92
2023-04-08T00:34:08.106Z,6.96
2023-04-08T00:35:08.086Z,6.96
2023-04-08T00:36:08.077Z,6.93
2023-04-08T00:37:08.056Z,6.96
2023-04-08T00:38:08.116Z,6.97
2023-04-08T00:39:08.062Z,6.97
2023-04-08T00:40:08.032Z,6.96
2023-04-08T00:41:08.018Z,6.96
2023-04-08T00:42:08.012Z,6.93
2023-04-08T00:43:08.027Z,6.99
2023-04-08T00:44:07.992Z,6.97
2023-04-08T00:45:07.981Z,6.97
2023-04-08T00:46:08.023Z,6.97
2023-04-08T00:47:07.958Z,6.93
2023-04-08T00:48:07.971Z,6.92
2023-04-08T00:49:07.937Z,6.92
2023-04-08T00:50:07.938Z,6.92
2023-04-08T00:51:07.922Z,6.93
2023-04-08T00:52:07.935Z,6.92
2023-04-08T00:53:07.900Z,6.96
2023-04-08T00:54:07.914Z,6.96
2023-04-08T00:55:07.888Z,6.96
2023-04-08T00:56:07.898Z,6.96
2023-04-08T00:57:07.856Z,6.93
2023-04-08T00:58:07.870Z,6.91
2023-04-08T00:59:07.838Z,6.89
2023-04-08T01:00:07.842Z,6.92
2023-04-08T01:01:07.882Z,6.92
2023-04-08T01:02:07.954Z,6.91
2023-04-08T01:03:08.029Z,6.88
2023-04-08T01:04:07.906Z,6.88
2023-04-08T01:05:07.773Z,6.85
2023-04-08T01:06:07.767Z,6.85
2023-04-08T01:07:07.758Z,6.83
2023-04-08T01:08:07.758Z,6.85
2023-04-08T01:09:07.742Z,6.85
2023-04-08T01:10:07.729Z,6.88
2023-04-08T01:11:07.739Z,6.85
2023-04-08T01:12:07.720Z,6.83
2023-04-08T01:13:07.705Z,6.83
2023-04-08T01:14:07.682Z,6.83
2023-04-08T01:15:07.696Z,6.86
2023-04-08T01:16:07.729Z,6.91
2023-04-08T01:17:07.655Z,6.92
2023-04-08T01:18:07.662Z,6.92
2023-04-08T01:19:07.623Z,6.92
2023-04-08T01:20:07.631Z,6.89
2023-04-08T01:21:07.606Z,6.88
2023-04-08T01:22:07.605Z,6.86
2023-04-08T01:23:07.596Z,6.86
2023-04-08T01:24:07.585Z,6.89
2023-04-08T01:25:07.581Z,6.88
2023-04-08T01:26:07.559Z,6.86
2023-04-08T01:27:07.545Z,6.86
2023-04-08T01:28:07.551Z,6.85
2023-04-08T01:29:07.522Z,6.86
2023-04-08T01:30:07.520Z,6.86
2023-04-08T01:31:07.575Z,6.85
2023-04-08T01:32:07.505Z,6.83
2023-04-08T01:33:07.498Z,6.86
2023-04-08T01:34:07.472Z,6.88
2023-04-08T01:35:07.457Z,6.91
2023-04-08T01:36:07.473Z,6.91
2023-04-08T01:37:07.438Z,6.86
2023-04-08T01:38:07.461Z,6.83
2023-04-08T01:39:07.422Z,6.79
2023-04-08T01:40:07.421Z,6.78
2023-04-08T01:41:07.391Z,6.78
2023-04-08T01:42:07.419Z,6.79
2023-04-08T01:43:07.388Z,6.79
2023-04-08T01:44:07.374Z,6.78
2023-04-08T01:45:07.357Z,6.79
2023-04-08T01:46:07.352Z,6.79
2023-04-08T01:47:07.403Z,6.78
2023-04-08T01:48:07.508Z,6.75
2023-04-08T01:49:07.322Z,6.73
2023-04-08T01:50:07.318Z,6.71
2023-04-08T01:51:07.298Z,6.71
2023-04-08T01:52:07.299Z,6.68
2023-04-08T01:53:07.284Z,6.64
2023-04-08T01:54:07.275Z,6.64
2023-04-08T01:55:07.265Z,6.63
2023-04-08T01:56:07.264Z,6.61
2023-04-08T01:57:07.236Z,6.60
2023-04-08T01:58:07.237Z,6.57
2023-04-08T01:59:07.215Z,6.55
2023-04-08T02:00:07.209Z,6.55
2023-04-08T02:01:07.199Z,6.53
2023-04-08T02:02:07.291Z,6.56
2023-04-08T02:03:07.364Z,6.53
2023-04-08T02:04:07.220Z,6.55
2023-04-08T02:05:07.179Z,6.53
2023-04-08T02:06:07.144Z,6.53
2023-04-08T02:07:07.132Z,6.53
2023-04-08T02:08:07.142Z,6.55
2023-04-08T02:09:07.105Z,6.52
2023-04-08T02:10:07.122Z,6.53
2023-04-08T02:11:07.111Z,6.55
2023-04-08T02:12:07.085Z,6.53
2023-04-08T02:13:07.074Z,6.52
2023-04-08T02:14:07.057Z,6.52
2023-04-08T02:15:07.042Z,6.53
2023-04-08T02:16:07.095Z,6.56
2023-04-08T02:17:07.059Z,6.60
2023-04-08T02:18:07.056Z,6.63
2023-04-08T02:19:07.005Z,6.63
2023-04-08T02:20:06.999Z,6.63
2023-04-08T02:21:06.989Z,6.63
2023-04-08T02:22:06.990Z,6.65
2023-04-08T02:23:07.006Z,6.65
2023-04-08T02:24:06.965Z,6.63
2023-04-08T02:25:06.946Z,6.64
2023-04-08T02:26:06.937Z,6.67
2023-04-08T02:27:06.928Z,6.74
2023-04-08T02:28:06.934Z,6.75
2023-04-08T02:29:06.906Z,6.73
2023-04-08T02:30:06.908Z,6.73
2023-04-08T02:31:06.951Z,6.70
2023-04-08T02:32:06.873Z,6.67
2023-04-08T02:33:06.909Z,6.65
2023-04-08T02:34:06.863Z,6.68
2023-04-08T02:35:06.853Z,6.68
2023-04-08T02:36:06.832Z,6.71
2023-04-08T02:37:06.817Z,6.73
2023-04-08T02:38:06.827Z,6.71
2023-04-08T02:39:06.812Z,6.70
2023-04-08T02:40:06.797Z,6.68
2023-04-08T02:41:06.776Z,6.75
2023-04-08T02:42:06.792Z,6.79
2023-04-08T02:43:06.772Z,6.83
2023-04-08T02:44:06.751Z,6.85
2023-04-08T02:45:06.737Z,6.91
2023-04-08T02:46:06.796Z,6.96
2023-04-08T02:47:06.711Z,6.93
2023-04-08T02:48:06.798Z,6.92
2023-04-08T02:49:06.693Z,6.93
2023-04-08T02:50:06.690Z,6.91
2023-04-08T02:51:06.686Z,6.89
2023-04-08T02:52:06.669Z,6.91
2023-04-08T02:53:06.671Z,6.91
2023-04-08T02:54:06.645Z,6.91
2023-04-08T02:55:06.627Z,6.92
2023-04-08T02:56:06.631Z,6.89
2023-04-08T02:57:06.609Z,6.92
2023-04-08T02:58:06.615Z,6.96
2023-04-08T02:59:06.596Z,6.97
2023-04-08T03:00:06.598Z,7.00
2023-04-08T03:01:06.595Z,7.06
2023-04-08T03:02:06.700Z,7.11
2023-04-08T03:03:06.740Z,7.10
2023-04-08T03:04:06.685Z,7.10
2023-04-08T03:05:06.523Z,7.10
2023-04-08T03:06:06.518Z,7.11
2023-04-08T03:07:08.506Z,7.15
2023-04-08T03:08:06.495Z,7.18
2023-04-08T03:09:06.498Z,7.22
2023-04-08T03:10:06.478Z,7.25
2023-04-08T03:11:06.456Z,7.25
2023-04-08T03:12:06.461Z,7.29
2023-04-08T03:13:06.449Z,7.29
2023-04-08T03:14:06.444Z,7.34
2023-04-08T03:15:06.417Z,7.33
2023-04-08T03:16:06.463Z,7.34
2023-04-08T03:17:06.407Z,7.34
2023-04-08T03:18:06.613Z,7.34
2023-04-08T03:19:06.391Z,7.37
2023-04-08T03:20:06.376Z,7.42
2023-04-08T03:21:06.356Z,7.44
2023-04-08T03:22:06.351Z,7.46
2023-04-08T03:23:06.338Z,7.50
2023-04-08T03:24:06.342Z,7.49
2023-04-08T03:25:06.316Z,7.52
2023-04-08T03:26:06.308Z,7.54
2023-04-08T03:27:06.291Z,7.58
2023-04-08T03:28:06.295Z,7.58
2023-04-08T03:29:06.287Z,7.57
2023-04-08T03:30:06.267Z,7.58
2023-04-08T03:31:06.261Z,7.58
2023-04-08T03:32:06.358Z,7.55
2023-04-08T03:33:07.528Z,7.60
2023-04-08T03:34:06.241Z,7.62
2023-04-08T03:35:06.205Z,7.64
2023-04-08T03:36:06.215Z,7.66
2023-04-08T03:37:06.203Z,7.66
2023-04-08T03:38:06.184Z,7.68
2023-04-08T03:39:06.177Z,7.68
2023-04-08T03:40:06.158Z,7.74
2023-04-08T03:41:06.143Z,7.74
2023-04-08T03:42:06.139Z,7.76
2023-04-08T03:43:06.120Z,7.78
2023-04-08T03:44:06.133Z,7.77
2023-04-08T03:45:06.100Z,7.78
2023-04-08T03:46:06.127Z,7.77
2023-04-08T03:47:06.095Z,7.77
2023-04-08T03:48:06.128Z,7.77
2023-04-08T03:49:06.079Z,7.80
2023-04-08T03:50:06.064Z,7.80
2023-04-08T03:51:06.050Z,7.80
2023-04-08T03:52:06.031Z,7.83
2023-04-08T03:53:06.024Z,7.84
2023-04-08T03:54:06.023Z,7.83
2023-04-08T03:55:06.005Z,7.84
2023-04-08T03:56:06.002Z,7.87
2023-04-08T03:57:05.975Z,7.86
2023-04-08T03:58:05.969Z,7.83
2023-04-08T03:59:05.982Z,7.84
2023-04-08T04:00:05.946Z,7.81
2023-04-08T04:01:05.936Z,7.81
2023-04-08T04:02:06.069Z,7.80
2023-04-08T04:03:05.987Z,7.78
2023-04-08T04:04:06.110Z,7.80
2023-04-08T04:05:05.889Z,7.81
2023-04-08T04:06:05.887Z,7.81
2023-04-08T04:07:05.872Z,7.80
2023-04-08T04:08:05.862Z,7.78
2023-04-08T04:09:05.867Z,7.77
2023-04-08T04:10:05.849Z,7.77
2023-04-08T04:11:05.833Z,7.77
2023-04-08T04:12:05.834Z,7.78
2023-04-08T04:13:05.811Z,7.77
2023-04-08T04:14:05.804Z,7.78
2023-04-08T04:15:05.775Z,7.78
2023-04-08T04:16:05.806Z,7.80
2023-04-08T04:17:05.767Z,7.78
2023-04-08T04:18:05.862Z,7.76
2023-04-08T04:19:05.774Z,7.77
2023-04-08T04:20:05.727Z,7.77
2023-04-08T04:21:05.728Z,7.76
2023-04-08T04:22:05.714Z,7.76
2023-04-08T04:23:05.731Z,7.76
2023-04-08T04:24:05.710Z,7.74
2023-04-08T04:25:05.680Z,7.76
2023-04-08T04:26:05.662Z,7.74
2023-04-08T04:27:05.664Z,7.76
2023-04-08T04:28:05.647Z,7.78
2023-04-08T04:29:05.659Z,7.80
2023-04-08T04:30:05.644Z,7.78
2023-04-08T04:31:05.660Z,7.78
2023-04-08T04:32:05.614Z,7.77
2023-04-08T04:33:05.727Z,7.81
2023-04-08T04:34:05.594Z,7.81
2023-04-08T04:35:05.580Z,7.78
2023-04-08T04:36:05.570Z,7.80
2023-04-08T04:37:05.555Z,7.80
2023-04-08T04:38:05.543Z,7.83
2023-04-08T04:39:05.564Z,7.81
2023-04-08T04:40:05.522Z,7.80
2023-04-08T04:41:05.513Z,7.81
2023-04-08T04:42:05.492Z,7.80
2023-04-08T04:43:05.491Z,7.81
2023-04-08T04:44:05.487Z,7.78
2023-04-08T04:45:05.471Z,7.77
2023-04-08T04:46:05.454Z,7.76
2023-04-08T04:47:05.443Z,7.74
2023-04-08T04:48:05.467Z,7.74
2023-04-08T04:49:05.439Z,7.71
2023-04-08T04:50:05.415Z,7.73
2023-04-08T04:51:05.419Z,7.69
2023-04-08T04:52:05.416Z,7.71
2023-04-08T04:53:05.395Z,7.69
2023-04-08T04:54:05.386Z,7.68
2023-04-08T04:55:05.361Z,7.69
2023-04-08T04:56:05.345Z,7.68
2023-04-08T04:57:05.344Z,7.69
2023-04-08T04:58:05.328Z,7.69
2023-04-08T04:59:05.289Z,7.68
2023-04-08T05:00:05.675Z,7.68
2023-04-08T05:01:05.249Z,7.64
2023-04-08T05:02:05.299Z,7.68
2023-04-08T05:03:05.332Z,7.68
2023-04-08T05:04:05.287Z,7.66
2023-04-08T05:05:05.291Z,7.66
2023-04-08T05:06:05.256Z,7.68
2023-04-08T05:07:05.246Z,7.69
2023-04-08T05:08:05.257Z,7.68
2023-04-08T05:09:05.236Z,7.66
2023-04-08T05:10:05.211Z,7.64
2023-04-08T05:11:05.210Z,7.68
2023-04-08T05:12:05.180Z,7.68
2023-04-08T05:13:05.183Z,7.68
2023-04-08T05:14:05.177Z,7.68
2023-04-08T05:15:05.155Z,7.68
2023-04-08T05:16:05.185Z,7.68
2023-04-08T05:17:05.135Z,7.68
2023-04-08T05:18:05.187Z,7.68
2023-04-08T05:19:05.125Z,7.68
2023-04-08T05:20:05.104Z,7.62
2023-04-08T05:21:05.100Z,7.62
2023-04-08T05:22:05.078Z,7.61
2023-04-08T05:23:05.076Z,7.64
2023-04-08T05:24:05.078Z,7.62
2023-04-08T05:25:05.078Z,7.68
2023-04-08T05:26:05.037Z,7.64
2023-04-08T05:27:05.037Z,7.66
2023-04-08T05:28:04.976Z,7.62
2023-04-08T05:29:04.967Z,7.62
2023-04-08T05:30:04.944Z,7.61
2023-04-08T05:31:05.037Z,7.61
2023-04-08T05:32:04.980Z,7.61
2023-04-08T05:33:05.044Z,7.61
2023-04-08T05:34:04.996Z,7.60
2023-04-08T05:35:04.949Z,7.61
2023-04-08T05:36:04.959Z,7.60
2023-04-08T05:37:04.876Z,7.61
2023-04-08T05:38:04.913Z,7.62
2023-04-08T05:39:04.911Z,7.64
2023-04-08T05:40:04.867Z,7.61
2023-04-08T05:41:04.837Z,7.60
2023-04-08T05:42:04.828Z,7.58
2023-04-08T05:43:04.833Z,7.58
2023-04-08T05:44:04.797Z,7.58
2023-04-08T05:45:04.825Z,7.61
2023-04-08T05:46:04.780Z,7.58
2023-04-08T05:47:04.880Z,7.61
2023-04-08T05:48:04.774Z,7.60
2023-04-08T05:49:04.748Z,7.60
2023-04-08T05:50:04.745Z,7.60
2023-04-08T05:51:04.729Z,7.61
2023-04-08T05:52:04.714Z,7.61
2023-04-08T05:53:04.715Z,7.61
2023-04-08T05:54:04.689Z,7.60
2023-04-08T05:55:04.695Z,7.60
2023-04-08T05:56:04.685Z,7.60
2023-04-08T05:57:04.661Z,7.61
2023-04-08T05:58:04.640Z,7.61
2023-04-08T05:59:04.635Z,7.60
2023-04-08T06:00:04.645Z,7.58
2023-04-08T06:01:04.612Z,7.60
2023-04-08T06:02:04.658Z,7.58
2023-04-08T06:03:04.886Z,7.57
2023-04-08T06:04:04.817Z,7.57
2023-04-08T06:05:04.657Z,7.55
2023-04-08T06:06:04.552Z,7.57
2023-04-08T06:07:04.555Z,7.55
2023-04-08T06:08:04.532Z,7.55
2023-04-08T06:09:04.527Z,7.54
2023-04-08T06:10:04.520Z,7.54
2023-04-08T06:11:04.515Z,7.54
2023-04-08T06:12:04.504Z,7.57
2023-04-08T06:13:04.506Z,7.55
2023-04-08T06:14:04.466Z,7.54
2023-04-08T06:15:04.479Z,7.50
2023-04-08T06:16:04.472Z,7.52
2023-04-08T06:17:04.697Z,7.50
2023-04-08T06:18:04.450Z,7.52
2023-04-08T06:19:04.445Z,7.52
2023-04-08T06:20:04.418Z,7.52
2023-04-08T06:21:04.395Z,7.50
2023-04-08T06:22:04.390Z,7.50
2023-04-08T06:23:04.406Z,7.47
2023-04-08T06:24:04.363Z,7.49
2023-04-08T06:25:04.367Z,7.49
2023-04-08T06:26:04.339Z,7.52
2023-04-08T06:27:04.352Z,7.55
2023-04-08T06:28:04.320Z,7.54
2023-04-08T06:29:04.313Z,7.55
2023-04-08T06:30:04.319Z,7.55
2023-04-08T06:31:04.307Z,7.55
2023-04-08T06:32:04.350Z,7.57
2023-04-08T06:33:04.351Z,7.58
2023-04-08T06:34:04.259Z,7.60
2023-04-08T06:35:04.268Z,7.61
2023-04-08T06:36:04.333Z,7.64
2023-04-08T06:37:04.238Z,7.64
2023-04-08T06:38:04.218Z,7.64
2023-04-08T06:39:04.273Z,7.62
2023-04-08T06:40:04.223Z,7.62
2023-04-08T06:41:04.186Z,7.64
2023-04-08T06:42:04.182Z,7.66
2023-04-08T06:43:04.164Z,7.62
2023-04-08T06:44:04.161Z,7.66
2023-04-08T06:45:04.175Z,7.68
2023-04-08T06:46:04.168Z,7.66
2023-04-08T06:47:04.145Z,7.66
2023-04-08T06:48:04.114Z,7.68
2023-04-08T06:49:04.106Z,7.68
2023-04-08T06:50:04.110Z,7.64
2023-04-08T06:51:04.093Z,7.64
2023-04-08T06:52:04.072Z,7.64
2023-04-08T06:53:04.067Z,7.64
2023-04-08T06:54:04.044Z,7.66
2023-04-08T06:55:04.061Z,7.68
2023-04-08T06:56:04.032Z,7.66
2023-04-08T06:57:04.021Z,7.66
2023-04-08T06:58:04.003Z,7.68
2023-04-08T06:59:05.119Z,7.69
2023-04-08T07:00:03.995Z,7.68
2023-04-08T07:01:04.005Z,7.69
2023-04-08T07:02:04.189Z,7.68
2023-04-08T07:03:04.020Z,7.71
2023-04-08T07:04:03.962Z,7.73
2023-04-08T07:05:03.960Z,7.73
2023-04-08T07:06:03.928Z,7.76
2023-04-08T07:07:03.916Z,7.74
2023-04-08T07:08:03.903Z,7.74
2023-04-08T07:09:03.894Z,7.74
2023-04-08T07:10:03.896Z,7.76
2023-04-08T07:11:03.872Z,7.74
2023-04-08T07:12:03.854Z,7.74
2023-04-08T07:13:03.869Z,7.74
2023-04-08T07:14:03.844Z,7.74
2023-04-08T07:15:03.846Z,7.74
2023-04-08T07:16:03.829Z,7.74
2023-04-08T07:17:03.851Z,7.77
2023-04-08T07:18:03.848Z,7.80
2023-04-08T07:19:03.790Z,7.80
2023-04-08T07:20:03.796Z,7.80
2023-04-08T07:21:03.775Z,7.80
2023-04-08T07:22:03.759Z,7.80
2023-04-08T07:23:03.753Z,7.80
2023-04-08T07:24:03.735Z,7.80
2023-04-08T07:25:03.745Z,7.80
2023-04-08T07:26:03.720Z,7.83
2023-04-08T07:27:03.701Z,7.84
2023-04-08T07:28:03.818Z,7.86
2023-04-08T07:29:03.691Z,7.86
2023-04-08T07:30:03.692Z,7.87
2023-04-08T07:31:03.700Z,7.84
2023-04-08T07:32:03.659Z,7.86
2023-04-08T07:33:03.722Z,7.84
2023-04-08T07:34:03.631Z,7.84
2023-04-08T07:35:03.645Z,7.84
2023-04-08T07:36:03.690Z,7.86
2023-04-08T07:37:03.600Z,7.87
2023-04-08T07:38:03.582Z,7.87
2023-04-08T07:39:03.598Z,7.88
2023-04-08T07:40:03.579Z,7.91
2023-04-08T07:41:03.556Z,7.91
2023-04-08T07:42:03.537Z,7.91
2023-04-08T07:43:03.532Z,7.94
2023-04-08T07:44:03.520Z,7.92
2023-04-08T07:45:03.548Z,7.94
2023-04-08T07:46:03.533Z,7.94
2023-04-08T07:47:03.501Z,7.92
2023-04-08T07:48:03.522Z,7.95
2023-04-08T07:49:03.472Z,7.95
2023-04-08T07:50:03.468Z,7.96
2023-04-08T07:51:08.913Z,7.98
2023-04-08T07:52:04.431Z,7.98
2023-04-08T07:53:03.423Z,7.99
2023-04-08T07:54:03.414Z,7.98
2023-04-08T07:55:03.436Z,7.99
2023-04-08T07:56:03.402Z,8.01
2023-04-08T07:57:03.384Z,8.02
2023-04-08T07:58:03.366Z,8.02
2023-04-08T07:59:03.361Z,8.02
2023-04-08T08:00:03.366Z,8.04
2023-04-08T08:01:03.343Z,8.04
2023-04-08T08:02:03.495Z,8.05
2023-04-08T08:03:03.445Z,8.05
2023-04-08T08:04:03.464Z,8.06
2023-04-08T08:05:03.355Z,8.09
2023-04-08T08:06:03.356Z,8.10
2023-04-08T08:07:03.276Z,8.10
2023-04-08T08:08:03.259Z,8.12
2023-04-08T08:09:03.282Z,8.14
2023-04-08T08:10:03.275Z,8.13
2023-04-08T08:11:03.244Z,8.13
2023-04-08T08:12:03.233Z,8.13
2023-04-08T08:13:03.213Z,8.13
2023-04-08T08:14:03.198Z,8.14
2023-04-08T08:15:03.210Z,8.14
2023-04-08T08:16:03.247Z,8.13
2023-04-08T08:17:03.169Z,8.13
2023-04-08T08:18:03.248Z,8.14
2023-04-08T08:19:03.152Z,8.14
2023-04-08T08:20:03.138Z,8.14
2023-04-08T08:21:03.214Z,8.13
2023-04-08T08:22:03.123Z,8.13
2023-04-08T08:23:03.111Z,8.12
2023-04-08T08:24:03.108Z,8.14
2023-04-08T08:25:03.093Z,8.16
2023-04-08T08:26:03.085Z,8.16
2023-04-08T08:27:03.066Z,8.17
2023-04-08T08:28:03.059Z,8.19
2023-04-08T08:29:03.045Z,8.19
2023-04-08T08:30:03.049Z,8.20
2023-04-08T08:31:03.080Z,8.21
2023-04-08T08:32:03.011Z,8.21
2023-04-08T08:33:03.037Z,8.20
2023-04-08T08:34:03.077Z,8.21
2023-04-08T08:35:03.008Z,8.23
2023-04-08T08:36:03.014Z,8.26
2023-04-08T08:37:02.964Z,8.26
2023-04-08T08:38:02.954Z,8.26
2023-04-08T08:39:02.999Z,8.26
2023-04-08T08:40:02.926Z,8.26
2023-04-08T08:41:02.928Z,8.28
2023-04-08T08:42:02.907Z,8.28
2023-04-08T08:43:02.895Z,8.28
2023-04-08T08:44:02.888Z,8.29
2023-04-08T08:45:02.887Z,8.29
2023-04-08T08:46:02.877Z,8.29
2023-04-08T08:47:02.928Z,8.29
2023-04-08T08:48:02.902Z,8.31
2023-04-08T08:49:02.829Z,8.31
2023-04-08T08:50:02.821Z,8.31
2023-04-08T08:51:02.819Z,8.31
2023-04-08T08:52:02.800Z,8.31
2023-04-08T08:53:02.780Z,8.29
2023-04-08T08:54:02.798Z,8.31
2023-04-08T08:55:13.013Z,8.29
2023-04-08T08:57:02.739Z,8.32
2023-04-08T08:58:02.738Z,8.34
2023-04-08T08:59:02.736Z,8.35
2023-04-08T09:00:02.720Z,8.34
2023-04-08T09:01:02.718Z,8.34
2023-04-08T09:02:02.738Z,8.35
2023-04-08T09:03:02.964Z,8.34
2023-04-08T09:04:02.842Z,8.35
2023-04-08T09:05:02.800Z,8.35
2023-04-08T09:06:02.666Z,8.34
2023-04-08T09:07:02.639Z,8.37
2023-04-08T09:08:02.628Z,8.38
2023-04-08T09:09:02.615Z,8.38
2023-04-08T09:10:02.613Z,8.38
2023-04-08T09:11:02.616Z,8.38
2023-04-08T09:12:02.600Z,8.38
2023-04-08T09:13:02.574Z,8.38
2023-04-08T09:14:02.610Z,8.38
2023-04-08T09:15:02.568Z,8.38
2023-04-08T09:16:02.653Z,8.38
2023-04-08T09:17:02.531Z,8.38
2023-04-08T09:18:02.612Z,8.38
2023-04-08T09:19:02.511Z,8.38
2023-04-08T09:20:02.504Z,8.38
2023-04-08T09:21:02.505Z,8.38
2023-04-08T09:22:02.487Z,8.38
2023-04-08T09:23:02.494Z,8.41
2023-04-08T09:24:02.463Z,8.39
2023-04-08T09:25:02.460Z,8.38
2023-04-08T09:26:02.455Z,8.38
2023-04-08T09:27:02.426Z,8.39
2023-04-08T09:28:02.476Z,8.39
2023-04-08T09:29:10.938Z,8.39
2023-04-08T09:30:03.400Z,8.39
2023-04-08T09:31:02.396Z,8.39
2023-04-08T09:32:02.514Z,8.39
2023-04-08T09:33:02.404Z,8.39
2023-04-08T09:34:02.356Z,8.41
2023-04-08T09:35:02.351Z,8.42
2023-04-08T09:36:02.377Z,8.42
2023-04-08T09:37:02.331Z,8.42
2023-04-08T09:38:02.338Z,8.44
2023-04-08T09:39:02.296Z,8.46
2023-04-08T09:40:02.374Z,8.46
2023-04-08T09:41:02.294Z,8.44
2023-04-08T09:42:02.277Z,8.46
2023-04-08T09:43:02.263Z,8.42
2023-04-08T09:44:02.283Z,8.42
2023-04-08T09:45:02.251Z,8.44
2023-04-08T09:46:02.326Z,8.41
2023-04-08T09:47:02.221Z,8.42
2023-04-08T09:48:02.250Z,8.44
2023-04-08T09:49:02.194Z,8.44
2023-04-08T09:50:02.232Z,8.46
2023-04-08T09:51:02.222Z,8.46
2023-04-08T09:52:02.173Z,8.47
2023-04-08T09:53:02.151Z,8.47
2023-04-08T09:54:02.156Z,8.50
2023-04-08T09:55:02.144Z,8.50
2023-04-08T09:56:02.154Z,8.55
2023-04-08T09:57:02.186Z,8.55
2023-04-08T09:58:02.117Z,8.55
2023-04-08T09:59:02.112Z,8.57
2023-04-08T10:00:02.115Z,8.57
2023-04-08T10:01:02.118Z,8.59
2023-04-08T10:02:02.129Z,8.59
2023-04-08T10:03:02.203Z,8.59
2023-04-08T10:04:02.086Z,8.63
2023-04-08T10:05:02.149Z,8.63
2023-04-08T10:06:02.036Z,8.65
2023-04-08T10:07:02.010Z,8.65
2023-04-08T10:08:02.004Z,8.68
2023-04-08T10:09:01.992Z,8.71
2023-04-08T10:10:01.988Z,8.70
2023-04-08T10:11:01.978Z,8.70
2023-04-08T10:12:01.993Z,8.71
2023-04-08T10:13:01.949Z,8.70
2023-04-08T10:14:01.957Z,8.70
2023-04-08T10:15:01.935Z,8.70
2023-04-08T10:16:01.968Z,8.70
2023-04-08T10:17:01.957Z,8.68
2023-04-08T10:18:01.936Z,8.68
2023-04-08T10:19:01.881Z,8.67
2023-04-08T10:20:01.936Z,8.68
2023-04-08T10:21:01.870Z,8.68
2023-04-08T10:22:01.861Z,8.68
2023-04-08T10:23:01.852Z,8.68
2023-04-08T10:24:01.837Z,8.70
2023-04-08T10:25:01.821Z,8.68
2023-04-08T10:26:01.821Z,8.68
2023-04-08T10:27:01.796Z,8.68
2023-04-08T10:28:01.836Z,8.68
2023-04-08T10:29:01.778Z,8.70
2023-04-08T10:30:01.777Z,8.70
2023-04-08T10:31:01.769Z,8.71
2023-04-08T10:32:01.826Z,8.70
2023-04-08T10:33:01.775Z,8.71
2023-04-08T10:34:01.726Z,8.71
2023-04-08T10:35:01.731Z,8.72
2023-04-08T10:36:01.754Z,8.72
2023-04-08T10:37:01.686Z,8.72
2023-04-08T10:38:01.726Z,8.74
2023-04-08T10:39:01.771Z,8.74
2023-04-08T10:40:01.711Z,8.72
2023-04-08T10:41:01.664Z,8.72
2023-04-08T10:42:01.650Z,8.72
2023-04-08T10:43:01.644Z,8.72
2023-04-08T10:44:01.631Z,8.72
2023-04-08T10:45:01.615Z,8.72
2023-04-08T10:46:01.759Z,8.72
2023-04-08T10:47:01.590Z,8.71
2023-04-08T10:48:01.609Z,8.72
2023-04-08T10:49:01.570Z,8.72
2023-04-08T10:50:01.565Z,8.72
2023-04-08T10:51:01.554Z,8.75
2023-04-08T10:52:01.555Z,8.74
2023-04-08T10:53:01.518Z,8.72
2023-04-08T10:54:01.531Z,8.72
2023-04-08T10:55:01.499Z,8.71
2023-04-08T10:56:01.501Z,8.71
2023-04-08T10:57:01.470Z,8.74
2023-04-08T10:58:01.464Z,8.72
2023-04-08T10:59:01.466Z,8.72
2023-04-08T11:00:01.466Z,8.71
2023-04-08T11:01:01.485Z,8.72
2023-04-08T11:02:01.780Z,8.71
2023-04-08T11:03:01.566Z,8.71
2023-04-08T11:04:01.549Z,8.70
2023-04-08T11:05:01.405Z,8.70
2023-04-08T11:06:01.402Z,8.71
2023-04-08T11:07:01.381Z,8.71
2023-04-08T11:08:01.375Z,8.70
2023-04-08T11:09:01.395Z,8.68
2023-04-08T11:10:01.350Z,8.70
2023-04-08T11:11:01.367Z,8.68
2023-04-08T11:12:01.333Z,8.72
2023-04-08T11:13:01.304Z,8.71
2023-04-08T11:14:01.313Z,8.72
2023-04-08T11:15:01.288Z,8.72
2023-04-08T11:16:01.317Z,8.74
2023-04-08T11:17:01.276Z,8.74
2023-04-08T11:18:01.303Z,8.74
2023-04-08T11:19:01.238Z,8.75
2023-04-08T11:20:01.238Z,8.75
2023-04-08T11:21:01.222Z,8.74
2023-04-08T11:22:01.238Z,8.72
2023-04-08T11:23:01.209Z,8.72
2023-04-08T11:24:01.228Z,8.72
2023-04-08T11:25:01.178Z,8.72
2023-04-08T11:26:01.185Z,8.72
2023-04-08T11:27:01.174Z,8.75
2023-04-08T11:28:01.157Z,8.77
2023-04-08T11:29:01.148Z,8.78
2023-04-08T11:30:01.137Z,8.80
2023-04-08T11:31:01.223Z,8.80
2023-04-08T11:32:01.125Z,8.81
2023-04-08T11:33:01.134Z,8.81
2023-04-08T11:34:01.092Z,8.83
2023-04-08T11:35:01.087Z,8.85
2023-04-08T11:36:01.107Z,8.85
2023-04-08T11:37:01.070Z,8.85
2023-04-08T11:38:01.060Z,8.86
2023-04-08T11:39:01.027Z,8.88
2023-04-08T11:40:01.029Z,8.89
2023-04-08T11:41:01.015Z,8.89
2023-04-08T11:42:01.019Z,8.90
2023-04-08T11:43:00.990Z,8.92
2023-04-08T11:44:00.984Z,8.90
2023-04-08T11:45:00.973Z,8.93
2023-04-08T11:46:00.992Z,8.95
2023-04-08T11:47:00.959Z,8.96
2023-04-08T11:48:02.419Z,8.99
2023-04-08T11:49:00.939Z,8.99
2023-04-08T11:50:00.920Z,9.04
2023-04-08T11:51:00.899Z,9.08
2023-04-08T11:52:00.910Z,9.12
2023-04-08T11:53:00.894Z,9.14
2023-04-08T11:54:00.897Z,9.16
2023-04-08T11:55:00.858Z,9.23
2023-04-08T11:56:00.858Z,9.27
2023-04-08T11:57:00.861Z,9.29
2023-04-08T11:58:00.837Z,9.32
2023-04-08T11:59:00.816Z,9.36
2023-04-08T12:00:00.821Z,9.40
2023-04-08T12:01:00.805Z,9.41
2023-04-08T12:02:00.880Z,9.45
2023-04-08T12:03:00.837Z,9.48
2023-04-08T12:04:00.935Z,9.50
2023-04-08T12:05:00.823Z,9.54
2023-04-08T12:06:00.745Z,9.54
2023-04-08T12:07:00.776Z,9.59
2023-04-08T12:08:00.740Z,9.60
2023-04-08T12:09:00.720Z,9.62
2023-04-08T12:10:00.720Z,9.65
2023-04-08T12:11:12.933Z,9.66
2023-04-08T12:12:01.695Z,9.69
2023-04-08T12:13:00.681Z,9.70
2023-04-08T12:14:00.669Z,9.70
2023-04-08T12:15:00.651Z,9.70
2023-04-08T12:16:00.648Z,9.73
2023-04-08T12:17:00.640Z,9.73
2023-04-08T12:18:00.671Z,9.75
2023-04-08T12:19:00.617Z,9.75
2023-04-08T12:20:00.609Z,9.75
2023-04-08T12:21:00.592Z,9.75
2023-04-08T12:22:00.594Z,9.75
2023-04-08T12:23:00.570Z,9.75
2023-04-08T12:24:00.567Z,9.77
2023-04-08T12:25:00.551Z,9.78
2023-04-08T12:26:00.534Z,9.78
2023-04-08T12:27:00.539Z,9.80
2023-04-08T12:28:00.524Z,9.81
2023-04-08T12:29:00.534Z,9.81
2023-04-08T12:30:00.501Z,9.81
2023-04-08T12:31:00.486Z,9.83
2023-04-08T12:32:00.585Z,9.84
2023-04-08T12:33:00.479Z,9.84
2023-04-08T12:34:00.456Z,9.84
2023-04-08T12:35:00.533Z,9.84
2023-04-08T12:36:00.466Z,9.84
2023-04-08T12:37:00.443Z,9.85
2023-04-08T12:38:00.424Z,9.84
2023-04-08T12:39:00.404Z,9.85
2023-04-08T12:40:00.395Z,9.85
2023-04-08T12:41:00.381Z,9.85
2023-04-08T12:42:00.409Z,9.85
2023-04-08T12:43:00.364Z,9.85
2023-04-08T12:44:00.357Z,9.87
2023-04-08T12:45:00.340Z,9.85
2023-04-08T12:46:00.332Z,9.84
2023-04-08T12:47:00.344Z,9.84
2023-04-08T12:48:00.325Z,9.84
2023-04-08T12:49:04.125Z,9.84
2023-04-08T12:50:00.289Z,9.84
2023-04-08T12:51:00.282Z,9.84
2023-04-08T12:52:00.276Z,9.83
2023-04-08T12:53:00.260Z,9.87
2023-04-08T12:54:00.238Z,9.85
2023-04-08T12:55:00.246Z,9.87
2023-04-08T12:56:00.229Z,9.85
2023-04-08T12:57:00.229Z,9.87
2023-04-08T12:58:00.198Z,9.85
2023-04-08T12:59:00.194Z,9.87
2023-04-08T13:00:00.198Z,9.85
2023-04-08T13:01:00.216Z,9.87
2023-04-08T13:02:00.217Z,9.88
2023-04-08T13:03:00.256Z,9.88
2023-04-08T13:04:00.246Z,9.90
2023-04-08T13:05:00.141Z,9.91
2023-04-08T13:06:00.127Z,9.93
2023-04-08T13:07:00.133Z,9.94
2023-04-08T13:08:00.132Z,9.96
2023-04-08T13:09:00.125Z,9.99
2023-04-08T13:10:00.100Z,10.01
2023-04-08T13:11:00.076Z,10.03
2023-04-08T13:12:00.082Z,10.06
2023-04-08T13:13:00.052Z,10.09
2023-04-08T13:14:00.038Z,10.10
2023-04-08T13:15:00.036Z,10.12
2023-04-08T13:16:00.033Z,10.16
2023-04-08T13:17:00.029Z,10.18
2023-04-08T13:18:00.087Z,10.21
2023-04-08T13:18:59.989Z,10.21